sensor_id;sensor_type;location;lat;lon;timestamp;P1;durP1;ratioP1;P2;durP2;ratioP2
17214;SDS011;8723;51.502;6.918;2022-10-16T00:00:45;7.65;;;5.03;;
17214;SDS011;8723;51.502;6.918;2022-10-16T00:03:13;6.75;;;4.88;;
17214;SDS011;8723;51.502;6.918;2022-10-16T00:05:40;6.45;;;4.80;;
17214;SDS011;8723;51.502;6.918;2022-10-16T00:08:08;5.07;;;4.50;;
17214;SDS011;8723;51.502;6.918;2022-10-16T00:10:35;7.35;;;4.95;;
17214;SDS011;8723;51.502;6.918;2022-10-16T00:13:02;7.40;;;4.70;;
17214;SDS011;8723;51.502;6.918;2022-10-16T00:15:30;6.78;;;4.85;;
17214;SDS011;8723;51.502;6.918;2022-10-16T00:17:58;7.22;;;4.53;;
17214;SDS011;8723;51.502;6.918;2022-10-16T00:20:26;7.95;;;4.90;;
17214;SDS011;8723;51.502;6.918;2022-10-16T00:22:53;8.70;;;4.78;;
17214;SDS011;8723;51.502;6.918;2022-10-16T00:25:20;6.70;;;5.03;;
17214;SDS011;8723;51.502;6.918;2022-10-16T00:27:47;6.00;;;4.40;;
17214;SDS011;8723;51.502;6.918;2022-10-16T00:30:14;5.35;;;4.38;;
17214;SDS011;8723;51.502;6.918;2022-10-16T00:32:41;6.10;;;4.20;;
17214;SDS011;8723;51.502;6.918;2022-10-16T00:35:10;7.50;;;4.70;;
17214;SDS011;8723;51.502;6.918;2022-10-16T00:37:37;8.00;;;4.80;;
17214;SDS011;8723;51.502;6.918;2022-10-16T00:40:05;6.38;;;4.15;;
17214;SDS011;8723;51.502;6.918;2022-10-16T00:42:32;7.00;;;4.10;;
17214;SDS011;8723;51.502;6.918;2022-10-16T00:44:59;6.35;;;4.28;;
17214;SDS011;8723;51.502;6.918;2022-10-16T00:47:27;7.10;;;3.83;;
17214;SDS011;8723;51.502;6.918;2022-10-16T00:49:58;5.63;;;3.50;;
17214;SDS011;8723;51.502;6.918;2022-10-16T00:52:27;6.22;;;4.28;;
17214;SDS011;8723;51.502;6.918;2022-10-16T00:54:54;5.68;;;4.13;;
17214;SDS011;8723;51.502;6.918;2022-10-16T00:57:22;5.27;;;3.60;;
17214;SDS011;8723;51.502;6.918;2022-10-16T00:59:49;4.82;;;3.90;;
17214;SDS011;8723;51.502;6.918;2022-10-16T01:02:17;4.95;;;3.65;;
17214;SDS011;8723;51.502;6.918;2022-10-16T01:04:45;6.10;;;3.75;;
17214;SDS011;8723;51.502;6.918;2022-10-16T01:07:14;5.43;;;3.85;;
17214;SDS011;8723;51.502;6.918;2022-10-16T01:09:47;6.88;;;4.53;;
17214;SDS011;8723;51.502;6.918;2022-10-16T01:12:20;6.03;;;4.15;;
17214;SDS011;8723;51.502;6.918;2022-10-16T01:14:52;6.35;;;3.75;;
17214;SDS011;8723;51.502;6.918;2022-10-16T01:17:22;6.22;;;4.30;;
17214;SDS011;8723;51.502;6.918;2022-10-16T01:20:00;6.22;;;4.05;;
17214;SDS011;8723;51.502;6.918;2022-10-16T01:22:30;6.03;;;4.33;;
17214;SDS011;8723;51.502;6.918;2022-10-16T01:25:01;7.32;;;4.30;;
17214;SDS011;8723;51.502;6.918;2022-10-16T01:27:33;5.57;;;4.00;;
17214;SDS011;8723;51.502;6.918;2022-10-16T01:30:04;5.97;;;3.50;;
17214;SDS011;8723;51.502;6.918;2022-10-16T01:32:33;6.03;;;4.05;;
17214;SDS011;8723;51.502;6.918;2022-10-16T01:35:03;5.65;;;4.05;;
17214;SDS011;8723;51.502;6.918;2022-10-16T01:37:32;5.63;;;3.60;;
17214;SDS011;8723;51.502;6.918;2022-10-16T01:40:00;5.15;;;3.60;;
17214;SDS011;8723;51.502;6.918;2022-10-16T01:42:30;3.75;;;3.45;;
17214;SDS011;8723;51.502;6.918;2022-10-16T01:44:59;4.95;;;3.53;;
17214;SDS011;8723;51.502;6.918;2022-10-16T01:47:28;4.57;;;3.50;;
17214;SDS011;8723;51.502;6.918;2022-10-16T01:49:57;6.72;;;3.40;;
17214;SDS011;8723;51.502;6.918;2022-10-16T01:52:25;4.95;;;3.28;;
17214;SDS011;8723;51.502;6.918;2022-10-16T01:54:53;4.13;;;3.58;;
17214;SDS011;8723;51.502;6.918;2022-10-16T01:57:21;5.38;;;3.45;;
17214;SDS011;8723;51.502;6.918;2022-10-16T01:59:52;4.32;;;3.47;;
17214;SDS011;8723;51.502;6.918;2022-10-16T02:02:22;5.00;;;3.60;;
17214;SDS011;8723;51.502;6.918;2022-10-16T02:04:51;6.47;;;3.10;;
17214;SDS011;8723;51.502;6.918;2022-10-16T02:07:20;3.33;;;3.03;;
17214;SDS011;8723;51.502;6.918;2022-10-16T02:09:47;4.72;;;2.80;;
17214;SDS011;8723;51.502;6.918;2022-10-16T02:12:15;5.60;;;2.40;;
17214;SDS011;8723;51.502;6.918;2022-10-16T02:14:45;4.10;;;2.20;;
17214;SDS011;8723;51.502;6.918;2022-10-16T02:17:13;3.03;;;2.05;;
17214;SDS011;8723;51.502;6.918;2022-10-16T02:19:42;3.10;;;1.92;;
17214;SDS011;8723;51.502;6.918;2022-10-16T02:22:12;3.65;;;1.90;;
17214;SDS011;8723;51.502;6.918;2022-10-16T02:24:43;3.85;;;2.10;;
17214;SDS011;8723;51.502;6.918;2022-10-16T02:27:13;3.00;;;2.27;;
17214;SDS011;8723;51.502;6.918;2022-10-16T02:29:45;1.90;;;1.70;;
17214;SDS011;8723;51.502;6.918;2022-10-16T02:32:15;3.07;;;1.90;;
17214;SDS011;8723;51.502;6.918;2022-10-16T02:34:44;2.55;;;2.15;;
17214;SDS011;8723;51.502;6.918;2022-10-16T02:37:12;2.60;;;2.00;;
17214;SDS011;8723;51.502;6.918;2022-10-16T02:39:39;2.90;;;1.88;;
17214;SDS011;8723;51.502;6.918;2022-10-16T02:42:09;4.90;;;2.08;;
17214;SDS011;8723;51.502;6.918;2022-10-16T02:44:36;2.58;;;2.00;;
17214;SDS011;8723;51.502;6.918;2022-10-16T02:47:03;3.63;;;1.80;;
17214;SDS011;8723;51.502;6.918;2022-10-16T02:49:30;2.95;;;1.70;;
17214;SDS011;8723;51.502;6.918;2022-10-16T02:51:59;1.92;;;1.75;;
17214;SDS011;8723;51.502;6.918;2022-10-16T02:54:26;2.35;;;1.95;;
17214;SDS011;8723;51.502;6.918;2022-10-16T02:56:53;2.08;;;1.73;;
17214;SDS011;8723;51.502;6.918;2022-10-16T02:59:20;2.43;;;1.90;;
17214;SDS011;8723;51.502;6.918;2022-10-16T03:01:47;2.30;;;1.67;;
17214;SDS011;8723;51.502;6.918;2022-10-16T03:04:14;2.30;;;1.58;;
17214;SDS011;8723;51.502;6.918;2022-10-16T03:06:41;3.47;;;2.00;;
17214;SDS011;8723;51.502;6.918;2022-10-16T03:09:10;3.67;;;1.70;;
17214;SDS011;8723;51.502;6.918;2022-10-16T03:11:37;4.03;;;1.93;;
17214;SDS011;8723;51.502;6.918;2022-10-16T03:14:04;1.90;;;1.67;;
17214;SDS011;8723;51.502;6.918;2022-10-16T03:16:31;2.17;;;1.60;;
17214;SDS011;8723;51.502;6.918;2022-10-16T03:18:58;1.80;;;1.67;;
17214;SDS011;8723;51.502;6.918;2022-10-16T03:21:25;2.05;;;1.60;;
17214;SDS011;8723;51.502;6.918;2022-10-16T03:23:53;2.70;;;1.70;;
17214;SDS011;8723;51.502;6.918;2022-10-16T03:26:21;2.00;;;1.30;;
17214;SDS011;8723;51.502;6.918;2022-10-16T03:28:48;2.33;;;1.60;;
17214;SDS011;8723;51.502;6.918;2022-10-16T03:31:15;2.20;;;1.65;;
17214;SDS011;8723;51.502;6.918;2022-10-16T03:33:42;1.73;;;1.63;;
17214;SDS011;8723;51.502;6.918;2022-10-16T03:36:09;4.10;;;1.70;;
17214;SDS011;8723;51.502;6.918;2022-10-16T03:38:36;2.47;;;1.70;;
17214;SDS011;8723;51.502;6.918;2022-10-16T03:41:04;2.53;;;1.80;;
17214;SDS011;8723;51.502;6.918;2022-10-16T03:43:34;2.20;;;1.50;;
17214;SDS011;8723;51.502;6.918;2022-10-16T03:46:01;1.67;;;1.58;;
17214;SDS011;8723;51.502;6.918;2022-10-16T03:48:28;5.30;;;1.60;;
17214;SDS011;8723;51.502;6.918;2022-10-16T03:50:55;2.77;;;1.33;;
17214;SDS011;8723;51.502;6.918;2022-10-16T03:53:23;2.20;;;1.70;;
17214;SDS011;8723;51.502;6.918;2022-10-16T03:55:50;3.05;;;1.50;;
17214;SDS011;8723;51.502;6.918;2022-10-16T03:58:17;2.75;;;1.33;;
17214;SDS011;8723;51.502;6.918;2022-10-16T04:00:46;2.47;;;1.55;;
17214;SDS011;8723;51.502;6.918;2022-10-16T04:03:13;2.55;;;1.52;;
17214;SDS011;8723;51.502;6.918;2022-10-16T04:05:40;2.58;;;1.90;;
17214;SDS011;8723;51.502;6.918;2022-10-16T04:08:08;3.28;;;1.70;;
17214;SDS011;8723;51.502;6.918;2022-10-16T04:10:35;4.00;;;1.70;;
17214;SDS011;8723;51.502;6.918;2022-10-16T04:13:02;2.90;;;1.60;;
17214;SDS011;8723;51.502;6.918;2022-10-16T04:15:29;2.83;;;1.70;;
17214;SDS011;8723;51.502;6.918;2022-10-16T04:17:57;1.83;;;1.67;;
17214;SDS011;8723;51.502;6.918;2022-10-16T04:20:24;2.50;;;1.60;;
17214;SDS011;8723;51.502;6.918;2022-10-16T04:22:52;2.53;;;1.80;;
17214;SDS011;8723;51.502;6.918;2022-10-16T04:25:19;2.05;;;1.80;;
17214;SDS011;8723;51.502;6.918;2022-10-16T04:27:46;3.67;;;1.80;;
17214;SDS011;8723;51.502;6.918;2022-10-16T04:30:13;2.53;;;1.85;;
17214;SDS011;8723;51.502;6.918;2022-10-16T04:32:40;3.15;;;1.80;;
17214;SDS011;8723;51.502;6.918;2022-10-16T04:35:09;3.45;;;1.80;;
17214;SDS011;8723;51.502;6.918;2022-10-16T04:37:36;2.28;;;2.00;;
17214;SDS011;8723;51.502;6.918;2022-10-16T04:40:04;2.00;;;1.90;;
17214;SDS011;8723;51.502;6.918;2022-10-16T04:42:31;2.35;;;1.70;;
17214;SDS011;8723;51.502;6.918;2022-10-16T04:44:58;2.25;;;1.90;;
17214;SDS011;8723;51.502;6.918;2022-10-16T04:47:25;2.38;;;1.90;;
17214;SDS011;8723;51.502;6.918;2022-10-16T04:49:52;2.80;;;2.05;;
17214;SDS011;8723;51.502;6.918;2022-10-16T04:52:21;2.63;;;1.77;;
17214;SDS011;8723;51.502;6.918;2022-10-16T04:54:49;3.60;;;1.97;;
17214;SDS011;8723;51.502;6.918;2022-10-16T04:57:16;2.08;;;1.88;;
17214;SDS011;8723;51.502;6.918;2022-10-16T04:59:43;2.40;;;1.92;;
17214;SDS011;8723;51.502;6.918;2022-10-16T05:02:11;3.47;;;1.80;;
17214;SDS011;8723;51.502;6.918;2022-10-16T05:04:38;2.38;;;1.75;;
17214;SDS011;8723;51.502;6.918;2022-10-16T05:07:05;3.10;;;1.70;;
17214;SDS011;8723;51.502;6.918;2022-10-16T05:09:33;2.70;;;1.70;;
17214;SDS011;8723;51.502;6.918;2022-10-16T05:12:00;2.08;;;1.70;;
17214;SDS011;8723;51.502;6.918;2022-10-16T05:14:28;1.73;;;1.63;;
17214;SDS011;8723;51.502;6.918;2022-10-16T05:16:55;2.15;;;1.83;;
17214;SDS011;8723;51.502;6.918;2022-10-16T05:19:23;1.98;;;1.70;;
17214;SDS011;8723;51.502;6.918;2022-10-16T05:21:50;3.65;;;1.67;;
17214;SDS011;8723;51.502;6.918;2022-10-16T05:24:17;2.10;;;1.67;;
17214;SDS011;8723;51.502;6.918;2022-10-16T05:26:45;2.63;;;1.73;;
17214;SDS011;8723;51.502;6.918;2022-10-16T05:29:12;2.35;;;1.90;;
17214;SDS011;8723;51.502;6.918;2022-10-16T05:31:39;2.42;;;1.75;;
17214;SDS011;8723;51.502;6.918;2022-10-16T05:34:07;2.10;;;1.90;;
17214;SDS011;8723;51.502;6.918;2022-10-16T05:36:34;3.17;;;1.80;;
17214;SDS011;8723;51.502;6.918;2022-10-16T05:39:01;1.70;;;1.60;;
17214;SDS011;8723;51.502;6.918;2022-10-16T05:41:28;2.17;;;1.50;;
17214;SDS011;8723;51.502;6.918;2022-10-16T05:43:56;1.77;;;1.67;;
17214;SDS011;8723;51.502;6.918;2022-10-16T05:46:23;2.65;;;1.80;;
17214;SDS011;8723;51.502;6.918;2022-10-16T05:48:51;2.43;;;1.80;;
17214;SDS011;8723;51.502;6.918;2022-10-16T05:51:19;2.83;;;1.67;;
17214;SDS011;8723;51.502;6.918;2022-10-16T05:53:46;2.15;;;1.65;;
17214;SDS011;8723;51.502;6.918;2022-10-16T05:56:13;2.22;;;1.77;;
17214;SDS011;8723;51.502;6.918;2022-10-16T05:58:40;2.13;;;1.70;;
17214;SDS011;8723;51.502;6.918;2022-10-16T06:01:11;2.25;;;1.63;;
17214;SDS011;8723;51.502;6.918;2022-10-16T06:03:39;3.20;;;1.85;;
17214;SDS011;8723;51.502;6.918;2022-10-16T06:06:09;2.30;;;1.67;;
17214;SDS011;8723;51.502;6.918;2022-10-16T06:08:37;3.30;;;1.90;;
17214;SDS011;8723;51.502;6.918;2022-10-16T06:11:05;2.35;;;1.73;;
17214;SDS011;8723;51.502;6.918;2022-10-16T06:13:32;2.67;;;1.75;;
17214;SDS011;8723;51.502;6.918;2022-10-16T06:16:00;1.90;;;1.70;;
17214;SDS011;8723;51.502;6.918;2022-10-16T06:18:29;2.28;;;1.90;;
17214;SDS011;8723;51.502;6.918;2022-10-16T06:20:56;3.78;;;2.08;;
17214;SDS011;8723;51.502;6.918;2022-10-16T06:23:23;2.80;;;1.90;;
17214;SDS011;8723;51.502;6.918;2022-10-16T06:25:51;2.00;;;1.63;;
17214;SDS011;8723;51.502;6.918;2022-10-16T06:28:18;2.60;;;1.80;;
17214;SDS011;8723;51.502;6.918;2022-10-16T06:30:45;2.40;;;1.80;;
17214;SDS011;8723;51.502;6.918;2022-10-16T06:33:12;3.15;;;1.85;;
17214;SDS011;8723;51.502;6.918;2022-10-16T06:35:40;2.08;;;1.63;;
17214;SDS011;8723;51.502;6.918;2022-10-16T06:38:08;2.15;;;1.90;;
17214;SDS011;8723;51.502;6.918;2022-10-16T06:40:35;2.92;;;1.70;;
17214;SDS011;8723;51.502;6.918;2022-10-16T06:43:02;2.60;;;1.77;;
17214;SDS011;8723;51.502;6.918;2022-10-16T06:45:29;2.70;;;1.60;;
17214;SDS011;8723;51.502;6.918;2022-10-16T06:47:56;3.08;;;1.50;;
17214;SDS011;8723;51.502;6.918;2022-10-16T06:50:23;2.95;;;1.73;;
17214;SDS011;8723;51.502;6.918;2022-10-16T06:52:52;2.60;;;1.92;;
17214;SDS011;8723;51.502;6.918;2022-10-16T06:55:19;2.00;;;1.80;;
17214;SDS011;8723;51.502;6.918;2022-10-16T06:57:46;3.00;;;1.70;;
17214;SDS011;8723;51.502;6.918;2022-10-16T07:00:14;2.10;;;1.70;;
17214;SDS011;8723;51.502;6.918;2022-10-16T07:02:41;3.50;;;1.70;;
17214;SDS011;8723;51.502;6.918;2022-10-16T07:05:08;1.70;;;1.60;;
17214;SDS011;8723;51.502;6.918;2022-10-16T07:07:35;3.40;;;1.80;;
17214;SDS011;8723;51.502;6.918;2022-10-16T07:10:04;2.22;;;1.80;;
17214;SDS011;8723;51.502;6.918;2022-10-16T07:12:31;2.88;;;2.05;;
17214;SDS011;8723;51.502;6.918;2022-10-16T07:14:58;4.05;;;1.98;;
17214;SDS011;8723;51.502;6.918;2022-10-16T07:17:25;3.10;;;2.20;;
17214;SDS011;8723;51.502;6.918;2022-10-16T07:19:52;2.03;;;1.83;;
17214;SDS011;8723;51.502;6.918;2022-10-16T07:22:20;3.20;;;2.10;;
17214;SDS011;8723;51.502;6.918;2022-10-16T07:24:47;2.70;;;2.13;;
17214;SDS011;8723;51.502;6.918;2022-10-16T07:27:16;2.08;;;1.88;;
17214;SDS011;8723;51.502;6.918;2022-10-16T07:29:43;3.20;;;2.08;;
17214;SDS011;8723;51.502;6.918;2022-10-16T07:32:11;2.95;;;2.05;;
17214;SDS011;8723;51.502;6.918;2022-10-16T07:34:38;2.40;;;1.73;;
17214;SDS011;8723;51.502;6.918;2022-10-16T07:37:05;3.53;;;2.05;;
17214;SDS011;8723;51.502;6.918;2022-10-16T07:39:32;3.38;;;2.10;;
17214;SDS011;8723;51.502;6.918;2022-10-16T07:41:59;3.37;;;1.93;;
17214;SDS011;8723;51.502;6.918;2022-10-16T07:44:28;2.30;;;2.10;;
17214;SDS011;8723;51.502;6.918;2022-10-16T07:46:55;2.55;;;1.90;;
17214;SDS011;8723;51.502;6.918;2022-10-16T07:49:22;2.30;;;1.90;;
17214;SDS011;8723;51.502;6.918;2022-10-16T07:51:49;3.20;;;2.30;;
17214;SDS011;8723;51.502;6.918;2022-10-16T07:54:16;3.47;;;1.98;;
17214;SDS011;8723;51.502;6.918;2022-10-16T07:56:44;3.22;;;2.00;;
17214;SDS011;8723;51.502;6.918;2022-10-16T07:59:11;2.60;;;1.83;;
17214;SDS011;8723;51.502;6.918;2022-10-16T08:01:39;3.80;;;2.00;;
17214;SDS011;8723;51.502;6.918;2022-10-16T08:04:08;3.05;;;1.92;;
17214;SDS011;8723;51.502;6.918;2022-10-16T08:06:35;2.13;;;1.88;;
17214;SDS011;8723;51.502;6.918;2022-10-16T08:09:02;1.90;;;1.70;;
17214;SDS011;8723;51.502;6.918;2022-10-16T08:11:29;2.40;;;2.00;;
17214;SDS011;8723;51.502;6.918;2022-10-16T08:13:57;1.60;;;1.30;;
17214;SDS011;8723;51.502;6.918;2022-10-16T08:16:24;2.08;;;1.92;;
17214;SDS011;8723;51.502;6.918;2022-10-16T08:18:52;2.03;;;1.80;;
17214;SDS011;8723;51.502;6.918;2022-10-16T08:21:20;2.33;;;1.67;;
17214;SDS011;8723;51.502;6.918;2022-10-16T08:23:49;2.35;;;1.73;;
17214;SDS011;8723;51.502;6.918;2022-10-16T08:26:16;2.53;;;1.60;;
17214;SDS011;8723;51.502;6.918;2022-10-16T08:28:44;2.50;;;1.70;;
17214;SDS011;8723;51.502;6.918;2022-10-16T08:31:11;1.87;;;1.70;;
17214;SDS011;8723;51.502;6.918;2022-10-16T08:33:40;4.65;;;1.83;;
17214;SDS011;8723;51.502;6.918;2022-10-16T08:36:10;3.75;;;1.70;;
17214;SDS011;8723;51.502;6.918;2022-10-16T08:38:37;3.22;;;1.63;;
17214;SDS011;8723;51.502;6.918;2022-10-16T08:41:17;2.22;;;1.60;;
17214;SDS011;8723;51.502;6.918;2022-10-16T08:44:01;1.98;;;1.70;;
17214;SDS011;8723;51.502;6.918;2022-10-16T08:46:33;4.20;;;2.00;;
17214;SDS011;8723;51.502;6.918;2022-10-16T08:49:05;4.32;;;2.03;;
17214;SDS011;8723;51.502;6.918;2022-10-16T08:51:37;6.97;;;2.20;;
17214;SDS011;8723;51.502;6.918;2022-10-16T08:54:06;7.80;;;2.38;;
17214;SDS011;8723;51.502;6.918;2022-10-16T08:56:35;5.80;;;2.03;;
17214;SDS011;8723;51.502;6.918;2022-10-16T08:59:02;3.60;;;1.80;;
17214;SDS011;8723;51.502;6.918;2022-10-16T09:01:34;6.00;;;1.90;;
17214;SDS011;8723;51.502;6.918;2022-10-16T09:04:08;3.10;;;1.77;;
17214;SDS011;8723;51.502;6.918;2022-10-16T09:06:43;4.88;;;1.90;;
17214;SDS011;8723;51.502;6.918;2022-10-16T09:09:21;9.35;;;2.70;;
17214;SDS011;8723;51.502;6.918;2022-10-16T09:11:54;7.90;;;2.30;;
17214;SDS011;8723;51.502;6.918;2022-10-16T09:14:28;17.30;;;2.85;;
17214;SDS011;8723;51.502;6.918;2022-10-16T09:17:03;4.90;;;1.70;;
17214;SDS011;8723;51.502;6.918;2022-10-16T09:19:35;2.45;;;2.05;;
17214;SDS011;8723;51.502;6.918;2022-10-16T09:22:10;3.33;;;1.90;;
17214;SDS011;8723;51.502;6.918;2022-10-16T09:24:38;4.35;;;1.90;;
17214;SDS011;8723;51.502;6.918;2022-10-16T09:27:06;3.50;;;1.50;;
17214;SDS011;8723;51.502;6.918;2022-10-16T09:29:34;5.55;;;1.58;;
17214;SDS011;8723;51.502;6.918;2022-10-16T09:32:07;2.67;;;1.77;;
17214;SDS011;8723;51.502;6.918;2022-10-16T09:34:36;4.05;;;1.80;;
17214;SDS011;8723;51.502;6.918;2022-10-16T09:37:11;3.90;;;1.57;;
17214;SDS011;8723;51.502;6.918;2022-10-16T09:39:48;2.30;;;1.45;;
17214;SDS011;8723;51.502;6.918;2022-10-16T09:42:16;4.30;;;1.52;;
17214;SDS011;8723;51.502;6.918;2022-10-16T09:44:47;2.47;;;1.50;;
17214;SDS011;8723;51.502;6.918;2022-10-16T09:47:15;5.87;;;1.70;;
17214;SDS011;8723;51.502;6.918;2022-10-16T09:49:50;3.33;;;1.33;;
17214;SDS011;8723;51.502;6.918;2022-10-16T09:52:18;2.85;;;1.30;;
17214;SDS011;8723;51.502;6.918;2022-10-16T09:54:50;2.05;;;1.20;;
17214;SDS011;8723;51.502;6.918;2022-10-16T09:57:17;1.88;;;1.20;;
17214;SDS011;8723;51.502;6.918;2022-10-16T09:59:46;4.53;;;1.80;;
17214;SDS011;8723;51.502;6.918;2022-10-16T10:02:13;2.80;;;1.52;;
17214;SDS011;8723;51.502;6.918;2022-10-16T10:04:43;3.55;;;1.55;;
17214;SDS011;8723;51.502;6.918;2022-10-16T10:07:16;2.45;;;1.48;;
17214;SDS011;8723;51.502;6.918;2022-10-16T10:09:44;3.85;;;1.50;;
17214;SDS011;8723;51.502;6.918;2022-10-16T10:12:18;2.22;;;1.23;;
17214;SDS011;8723;51.502;6.918;2022-10-16T10:14:46;3.05;;;1.50;;
17214;SDS011;8723;51.502;6.918;2022-10-16T10:17:15;2.90;;;1.35;;
17214;SDS011;8723;51.502;6.918;2022-10-16T10:19:47;1.73;;;1.30;;
17214;SDS011;8723;51.502;6.918;2022-10-16T10:22:17;2.58;;;1.67;;
17214;SDS011;8723;51.502;6.918;2022-10-16T10:24:53;2.57;;;1.43;;
17214;SDS011;8723;51.502;6.918;2022-10-16T10:27:22;2.40;;;1.38;;
17214;SDS011;8723;51.502;6.918;2022-10-16T10:29:53;3.07;;;1.30;;
17214;SDS011;8723;51.502;6.918;2022-10-16T10:32:24;1.70;;;1.13;;
17214;SDS011;8723;51.502;6.918;2022-10-16T10:34:58;1.27;;;1.00;;
17214;SDS011;8723;51.502;6.918;2022-10-16T10:37:30;2.08;;;1.13;;
17214;SDS011;8723;51.502;6.918;2022-10-16T10:40:03;1.40;;;1.13;;
17214;SDS011;8723;51.502;6.918;2022-10-16T10:42:36;1.65;;;1.20;;
17214;SDS011;8723;51.502;6.918;2022-10-16T10:45:12;1.80;;;1.25;;
17214;SDS011;8723;51.502;6.918;2022-10-16T10:47:45;2.05;;;1.10;;
17214;SDS011;8723;51.502;6.918;2022-10-16T10:50:18;2.25;;;0.95;;
17214;SDS011;8723;51.502;6.918;2022-10-16T10:52:53;1.37;;;1.00;;
17214;SDS011;8723;51.502;6.918;2022-10-16T10:55:23;1.98;;;1.30;;
17214;SDS011;8723;51.502;6.918;2022-10-16T10:58:00;2.00;;;0.90;;
17214;SDS011;8723;51.502;6.918;2022-10-16T11:00:35;2.58;;;1.00;;
17214;SDS011;8723;51.502;6.918;2022-10-16T11:03:09;2.43;;;1.20;;
17214;SDS011;8723;51.502;6.918;2022-10-16T11:05:40;1.70;;;0.85;;
17214;SDS011;8723;51.502;6.918;2022-10-16T11:08:10;1.47;;;1.13;;
17214;SDS011;8723;51.502;6.918;2022-10-16T11:10:40;2.03;;;0.80;;
17214;SDS011;8723;51.502;6.918;2022-10-16T11:13:15;2.90;;;1.00;;
17214;SDS011;8723;51.502;6.918;2022-10-16T11:15:44;2.80;;;1.02;;
17214;SDS011;8723;51.502;6.918;2022-10-16T11:18:15;3.25;;;1.10;;
17214;SDS011;8723;51.502;6.918;2022-10-16T11:20:45;1.55;;;0.90;;
17214;SDS011;8723;51.502;6.918;2022-10-16T11:23:14;2.42;;;1.10;;
17214;SDS011;8723;51.502;6.918;2022-10-16T11:25:43;1.77;;;1.00;;
17214;SDS011;8723;51.502;6.918;2022-10-16T11:28:13;1.20;;;1.00;;
17214;SDS011;8723;51.502;6.918;2022-10-16T11:30:41;2.40;;;0.90;;
17214;SDS011;8723;51.502;6.918;2022-10-16T11:33:14;1.40;;;0.93;;
17214;SDS011;8723;51.502;6.918;2022-10-16T11:35:47;2.37;;;1.00;;
17214;SDS011;8723;51.502;6.918;2022-10-16T11:38:16;1.92;;;0.82;;
17214;SDS011;8723;51.502;6.918;2022-10-16T11:40:48;1.52;;;0.88;;
17214;SDS011;8723;51.502;6.918;2022-10-16T11:43:22;1.55;;;1.17;;
17214;SDS011;8723;51.502;6.918;2022-10-16T11:45:51;1.73;;;1.08;;
17214;SDS011;8723;51.502;6.918;2022-10-16T11:48:23;1.42;;;1.00;;
17214;SDS011;8723;51.502;6.918;2022-10-16T11:50:53;2.42;;;1.00;;
17214;SDS011;8723;51.502;6.918;2022-10-16T11:53:23;1.95;;;0.90;;
17214;SDS011;8723;51.502;6.918;2022-10-16T11:55:51;2.43;;;1.00;;
17214;SDS011;8723;51.502;6.918;2022-10-16T11:58:24;2.77;;;0.93;;
17214;SDS011;8723;51.502;6.918;2022-10-16T12:00:56;2.77;;;1.00;;
17214;SDS011;8723;51.502;6.918;2022-10-16T12:03:26;2.60;;;1.15;;
17214;SDS011;8723;51.502;6.918;2022-10-16T12:05:58;1.48;;;0.70;;
17214;SDS011;8723;51.502;6.918;2022-10-16T12:08:27;2.38;;;0.90;;
17214;SDS011;8723;51.502;6.918;2022-10-16T12:11:05;2.75;;;1.10;;
17214;SDS011;8723;51.502;6.918;2022-10-16T12:13:34;3.67;;;1.15;;
17214;SDS011;8723;51.502;6.918;2022-10-16T12:18:49;1.60;;;0.70;;
17214;SDS011;8723;51.502;6.918;2022-10-16T12:21:30;2.67;;;1.02;;
17214;SDS011;8723;51.502;6.918;2022-10-16T12:23:58;1.10;;;0.80;;
17214;SDS011;8723;51.502;6.918;2022-10-16T12:26:25;1.53;;;0.70;;
17214;SDS011;8723;51.502;6.918;2022-10-16T12:28:54;1.95;;;0.93;;
17214;SDS011;8723;51.502;6.918;2022-10-16T12:31:22;1.70;;;0.80;;
17214;SDS011;8723;51.502;6.918;2022-10-16T12:33:54;1.73;;;1.02;;
17214;SDS011;8723;51.502;6.918;2022-10-16T12:36:27;1.17;;;0.90;;
17214;SDS011;8723;51.502;6.918;2022-10-16T12:38:54;3.78;;;1.30;;
17214;SDS011;8723;51.502;6.918;2022-10-16T12:41:25;1.20;;;0.90;;
17214;SDS011;8723;51.502;6.918;2022-10-16T12:43:52;2.55;;;1.08;;
17214;SDS011;8723;51.502;6.918;2022-10-16T12:46:33;0.95;;;0.80;;
17214;SDS011;8723;51.502;6.918;2022-10-16T12:49:06;1.05;;;0.85;;
17214;SDS011;8723;51.502;6.918;2022-10-16T12:51:34;1.80;;;1.08;;
17214;SDS011;8723;51.502;6.918;2022-10-16T12:54:02;2.65;;;1.10;;
17214;SDS011;8723;51.502;6.918;2022-10-16T12:56:33;3.30;;;0.98;;
17214;SDS011;8723;51.502;6.918;2022-10-16T12:59:05;2.03;;;0.93;;
17214;SDS011;8723;51.502;6.918;2022-10-16T13:01:39;1.65;;;1.02;;
17214;SDS011;8723;51.502;6.918;2022-10-16T13:04:14;2.35;;;0.85;;
17214;SDS011;8723;51.502;6.918;2022-10-16T13:06:46;0.80;;;0.70;;
17214;SDS011;8723;51.502;6.918;2022-10-16T13:09:18;2.50;;;1.00;;
17214;SDS011;8723;51.502;6.918;2022-10-16T13:11:55;1.77;;;1.10;;
17214;SDS011;8723;51.502;6.918;2022-10-16T13:14:29;1.77;;;1.00;;
17214;SDS011;8723;51.502;6.918;2022-10-16T13:17:02;1.00;;;0.90;;
17214;SDS011;8723;51.502;6.918;2022-10-16T13:19:32;1.77;;;1.10;;
17214;SDS011;8723;51.502;6.918;2022-10-16T13:22:03;2.17;;;1.25;;
17214;SDS011;8723;51.502;6.918;2022-10-16T13:24:46;3.20;;;1.20;;
17214;SDS011;8723;51.502;6.918;2022-10-16T13:27:18;1.90;;;1.20;;
17214;SDS011;8723;51.502;6.918;2022-10-16T13:29:52;2.53;;;1.43;;
17214;SDS011;8723;51.502;6.918;2022-10-16T13:32:22;2.58;;;1.63;;
17214;SDS011;8723;51.502;6.918;2022-10-16T13:34:50;1.70;;;1.30;;
17214;SDS011;8723;51.502;6.918;2022-10-16T13:37:19;2.35;;;1.55;;
17214;SDS011;8723;51.502;6.918;2022-10-16T13:39:46;4.30;;;1.67;;
17214;SDS011;8723;51.502;6.918;2022-10-16T13:42:18;2.75;;;1.40;;
17214;SDS011;8723;51.502;6.918;2022-10-16T13:44:48;4.07;;;1.55;;
17214;SDS011;8723;51.502;6.918;2022-10-16T13:47:17;3.00;;;1.20;;
17214;SDS011;8723;51.502;6.918;2022-10-16T13:49:46;1.70;;;1.10;;
17214;SDS011;8723;51.502;6.918;2022-10-16T13:52:17;1.33;;;1.00;;
17214;SDS011;8723;51.502;6.918;2022-10-16T13:54:44;2.17;;;1.20;;
17214;SDS011;8723;51.502;6.918;2022-10-16T13:57:12;2.15;;;0.82;;
17214;SDS011;8723;51.502;6.918;2022-10-16T13:59:39;2.88;;;1.20;;
17214;SDS011;8723;51.502;6.918;2022-10-16T14:02:10;1.23;;;0.88;;
17214;SDS011;8723;51.502;6.918;2022-10-16T14:04:41;1.92;;;1.00;;
17214;SDS011;8723;51.502;6.918;2022-10-16T14:07:12;2.90;;;2.28;;
17214;SDS011;8723;51.502;6.918;2022-10-16T14:09:40;1.40;;;1.00;;
17214;SDS011;8723;51.502;6.918;2022-10-16T14:12:08;1.10;;;1.00;;
17214;SDS011;8723;51.502;6.918;2022-10-16T14:14:40;1.40;;;0.90;;
17214;SDS011;8723;51.502;6.918;2022-10-16T14:17:13;1.90;;;1.00;;
17214;SDS011;8723;51.502;6.918;2022-10-16T14:19:40;2.55;;;0.90;;
17214;SDS011;8723;51.502;6.918;2022-10-16T14:22:21;2.03;;;0.98;;
17214;SDS011;8723;51.502;6.918;2022-10-16T14:24:49;3.23;;;0.90;;
17214;SDS011;8723;51.502;6.918;2022-10-16T14:27:24;2.23;;;1.20;;
17214;SDS011;8723;51.502;6.918;2022-10-16T14:30:03;1.88;;;0.88;;
17214;SDS011;8723;51.502;6.918;2022-10-16T14:32:32;1.60;;;0.93;;
17214;SDS011;8723;51.502;6.918;2022-10-16T14:34:59;1.45;;;0.80;;
17214;SDS011;8723;51.502;6.918;2022-10-16T14:37:28;2.58;;;1.63;;
17214;SDS011;8723;51.502;6.918;2022-10-16T14:39:55;1.30;;;1.05;;
17214;SDS011;8723;51.502;6.918;2022-10-16T14:42:23;1.80;;;0.90;;
17214;SDS011;8723;51.502;6.918;2022-10-16T14:44:51;1.45;;;0.73;;
17214;SDS011;8723;51.502;6.918;2022-10-16T14:47:19;1.40;;;0.82;;
17214;SDS011;8723;51.502;6.918;2022-10-16T14:49:47;2.95;;;0.80;;
17214;SDS011;8723;51.502;6.918;2022-10-16T14:52:14;3.50;;;1.40;;
17214;SDS011;8723;51.502;6.918;2022-10-16T14:54:43;1.67;;;0.80;;
17214;SDS011;8723;51.502;6.918;2022-10-16T14:57:15;0.82;;;0.73;;
17214;SDS011;8723;51.502;6.918;2022-10-16T14:59:43;0.68;;;0.68;;
17214;SDS011;8723;51.502;6.918;2022-10-16T15:02:16;0.87;;;0.83;;
17214;SDS011;8723;51.502;6.918;2022-10-16T15:04:45;1.13;;;0.65;;
17214;SDS011;8723;51.502;6.918;2022-10-16T15:07:12;1.15;;;0.65;;
17214;SDS011;8723;51.502;6.918;2022-10-16T15:09:39;1.80;;;0.73;;
17214;SDS011;8723;51.502;6.918;2022-10-16T15:12:07;2.80;;;0.93;;
17214;SDS011;8723;51.502;6.918;2022-10-16T15:14:34;1.02;;;0.63;;